Météo Nord-Pas-de-Calais   La météo au plus près de chez vous

Station météorologique

Observations météo à St-Auban-Sur-Ouveze (26292)

26292002 625 m Dernier relevé à 23:36
15.3°C
Humidité 66 % Vent 3.6 km/h

Journée consultée

Mercredi 2 Septembre 2026

Synthèse de la journée

Périodes de référence en UTC

Température maximale

29.4°C

à 16:00

06h 06h

Température minimale

12.6°C

à 08:00

18h 18h

Rafale maximale

33 km/h

à 16:54

00h 00h

Précipitations

0 mm

Cumul quotidien

06h 06h

Ensoleillement

9h 54 mins

Durée quotidienne

00h 00h

Graphiques de la journée

Heure locale Réduire

Données détaillées

Relevés météo

Pas de 6 minutes Afficher les relevés infra-horaires
Relevés météo détaillés à St-Auban-Sur-Ouveze pour le Mercredi 2 Septembre 2026
Heure Température °C Point de rosée °C Humidité % Vent moyen (raf.), km/h Précipitations mm Ensoleillement min Rayonnement global W/m²
23:36 15.3 °C 9.9 °C 70 % 5 km/h (8 km/h) 0 mm0 mm 0 min 0 W/m²
23:30 15.3 °C 9.9 °C 70 % 6 km/h (9 km/h) 0 mm0 mm 0 min 0 W/m²
23:24 15.3 °C 10.1 °C 71 % 5 km/h (9 km/h) 0 mm0 mm 0 min 0 W/m²
23:18 15.5 °C 10 °C 70 % 3 km/h (5 km/h) 0 mm0 mm 0 min 0 W/m²
23:12 15.6 °C 10.1 °C 70 % 2 km/h (4 km/h) 0 mm0 mm 0 min 0 W/m²
23:06 15.7 °C 10 °C 69 % 2 km/h (5 km/h) 0 mm0 mm 0 min 0 W/m²
23:00 15.8 °C 9.9 °C 68 % 4 km/h (8 km/h) 0 mm0 mm 0 min 0 W/m²
22:54 16 °C 10.1 °C 68 % 5 km/h (8 km/h) 0 mm0 mm 0 min 0 W/m²
22:48 16.2 °C 10.1 °C 67 % 5 km/h (8 km/h) 0 mm0 mm 0 min 0 W/m²
22:42 16.3 °C 9.9 °C 66 % 5 km/h (8 km/h) 0 mm0 mm 0 min 0 W/m²
22:36 16.5 °C 10.1 °C 66 % 4 km/h (6 km/h) 0 mm0 mm 0 min 0 W/m²
22:30 16.7 °C 10.3 °C 66 % 5 km/h (9 km/h) 0 mm0 mm 0 min 0 W/m²
22:24 16.9 °C 10.3 °C 65 % 6 km/h (9 km/h) 0 mm0 mm 0 min 0 W/m²
22:18 16.8 °C 10.4 °C 66 % 5 km/h (9 km/h) 0 mm0 mm 0 min 0 W/m²
22:12 17 °C 10.4 °C 65 % 6 km/h (10 km/h) 0 mm0 mm 0 min 0 W/m²
22:06 17.2 °C 10.3 °C 64 % 5 km/h (8 km/h) 0 mm0 mm 0 min 0 W/m²
22:00 17.1 °C 10.2 °C 64 % 7 km/h (11 km/h) 0 mm0 mm 0 min 0 W/m²
21:54 17.2 °C 10.3 °C 64 % 7 km/h (11 km/h) 0 mm0 mm 0 min 0 W/m²
21:48 17.7 °C 10.6 °C 63 % 6 km/h (8 km/h) 0 mm0 mm 0 min 0 W/m²
21:42 18.1 °C 10.5 °C 61 % 6 km/h (10 km/h) 0 mm0 mm 0 min 0 W/m²
21:36 18.4 °C 10 °C 58 % 6 km/h (10 km/h) 0 mm0 mm 0 min 0 W/m²
21:30 18.8 °C 10.6 °C 59 % 8 km/h (10 km/h) 0 mm0 mm 0 min 0 W/m²
21:24 18.7 °C 10.3 °C 58 % 8 km/h (12 km/h) 0 mm0 mm 0 min 0 W/m²
21:18 18.8 °C 10.6 °C 59 % 8 km/h (12 km/h) 0 mm0 mm 0 min 0 W/m²
21:12 19.1 °C 10.6 °C 58 % 8 km/h (11 km/h) 0 mm0 mm 0 min 0 W/m²
21:06 19.5 °C 10.2 °C 55 % 9 km/h (14 km/h) 0 mm0 mm 0 min 0 W/m²
21:00 19.9 °C 10 °C 53 % 6 km/h (13 km/h) 0 mm0 mm 0 min 0 W/m²
20:54 20.2 °C 10 °C 52 % 4 km/h (9 km/h) 0 mm0 mm 0 min 0 W/m²
20:48 20.3 °C 11 °C 55 % 4 km/h (9 km/h) 0 mm0 mm 0 min 0 W/m²
20:42 20.8 °C 10.6 °C 52 % 4 km/h (8 km/h) 0 mm0 mm 0 min 0 W/m²
20:36 20.9 °C 10.4 °C 51 % 4 km/h (8 km/h) 0 mm0 mm 0 min 0 W/m²
20:30 21.4 °C 10.5 °C 50 % 5 km/h (8 km/h) 0 mm0 mm 0 min 0 W/m²
20:24 21.5 °C 10.6 °C 50 % 5 km/h (9 km/h) 0 mm0 mm 0 min 0 W/m²
20:18 22.1 °C 10.9 °C 49 % 4 km/h (6 km/h) 0 mm0 mm 0 min 0 W/m²
20:12 22.9 °C 11.3 °C 48 % 4 km/h (6 km/h) 0 mm0 mm 0 min 0 W/m²
20:06 23.4 °C 10.8 °C 45 % 5 km/h (10 km/h) 0 mm0 mm 0 min 0 W/m²
20:00 23.8 °C 10.5 °C 43 % 5 km/h (11 km/h) 0 mm0 mm 0 min 4.1 W/m²
19:54 24.8 °C 11.7 °C 44 % 6 km/h (11 km/h) 0 mm0 mm 3 min 9.2 W/m²
19:48 25.1 °C 10.2 °C 39 % 8 km/h (13 km/h) 0 mm0 mm 6 min 16 W/m²
19:42 25 °C 9.7 °C 38 % 8 km/h (13 km/h) 0 mm0 mm 6 min 19 W/m²
19:36 24.9 °C 9.6 °C 38 % 7 km/h (12 km/h) 0 mm0 mm 0 min 16 W/m²
19:30 25.2 °C 9.9 °C 38 % 7 km/h (12 km/h) 0 mm0 mm 0 min 18.5 W/m²
19:24 25.6 °C 9.4 °C 36 % 8 km/h (17 km/h) 0 mm0 mm 0 min 20.3 W/m²
19:18 25.9 °C 8.8 °C 34 % 10 km/h (18 km/h) 0 mm0 mm 0 min 22.4 W/m²
19:12 26.1 °C 9 °C 34 % 11 km/h (20 km/h) 0 mm0 mm 0 min 24.5 W/m²
19:06 26.2 °C 8.7 °C 33 % 11 km/h (18 km/h) 0 mm0 mm 0 min 26.9 W/m²
19:00 26.3 °C 9.2 °C 34 % 9 km/h (15 km/h) 0 mm0 mm 0 min 30.4 W/m²
18:54 26.4 °C 9.7 °C 35 % 9 km/h (17 km/h) 0 mm0 mm 0 min 36.9 W/m²
18:48 26.5 °C 9.4 °C 34 % 9 km/h (14 km/h) 0 mm0 mm 0 min 41.3 W/m²
18:42 26.7 °C 9.1 °C 33 % 11 km/h (21 km/h) 0 mm0 mm 0 min 44.2 W/m²
18:36 26.9 °C 9.3 °C 33 % 13 km/h (22 km/h) 0 mm0 mm 0 min 52.5 W/m²
18:30 26.8 °C 8.2 °C 31 % 11 km/h (21 km/h) 0 mm0 mm 0 min 49 W/m²
18:24 26.9 °C 8.8 °C 32 % 13 km/h (24 km/h) 0 mm0 mm 0 min 47.3 W/m²
18:18 27.1 °C 8.5 °C 31 % 17 km/h (26 km/h) 0 mm0 mm 0 min 51 W/m²
18:12 27.4 °C 7.8 °C 29 % 16 km/h (26 km/h) 0 mm0 mm 0 min 58.6 W/m²
18:06 27.9 °C 8.2 °C 29 % 18 km/h (31 km/h) 0 mm0 mm 3 min 90 W/m²
18:00 28.1 °C 8.4 °C 29 % 19 km/h (31 km/h) 0 mm0 mm 6 min 125.7 W/m²
17:54 28 °C 8.3 °C 29 % 17 km/h (27 km/h) 0 mm0 mm 6 min 127.8 W/m²
17:48 27.7 °C 8 °C 29 % 16 km/h (28 km/h) 0 mm0 mm 0 min 72.1 W/m²
17:42 28.1 °C 7.3 °C 27 % 17 km/h (28 km/h) 0 mm0 mm 4 min 120.8 W/m²
17:36 28.3 °C 8 °C 28 % 19 km/h (33 km/h) 0 mm0 mm 6 min 157.1 W/m²
17:30 27.9 °C 8.7 °C 30 % 19 km/h (32 km/h) 0 mm0 mm 5 min 129.8 W/m²
17:24 28.4 °C 10.1 °C 32 % 18 km/h (28 km/h) 0 mm0 mm 6 min 161.8 W/m²
17:18 28.3 °C 10.9 °C 34 % 18 km/h (28 km/h) 0 mm0 mm 6 min 144.8 W/m²
17:12 28.4 °C 11 °C 34 % 17 km/h (29 km/h) 0 mm0 mm 6 min 179.8 W/m²
17:06 28.7 °C 11.7 °C 35 % 15 km/h (27 km/h) 0 mm0 mm 6 min 180.2 W/m²
17:00 28.4 °C 11.9 °C 36 % 19 km/h (33 km/h) 0 mm0 mm 6 min 175.3 W/m²
16:54 28.6 °C 12.1 °C 36 % 18 km/h (33 km/h) 0 mm0 mm 6 min 187.9 W/m²
16:48 28.8 °C 11.8 °C 35 % 15 km/h (31 km/h) 0 mm0 mm 6 min 200.9 W/m²
16:42 28.6 °C 12.1 °C 36 % 15 km/h (27 km/h) 0 mm0 mm 6 min 204 W/m²
16:36 28.8 °C 11.8 °C 35 % 16 km/h (27 km/h) 0 mm0 mm 6 min 212.4 W/m²
16:30 28.8 °C 12.2 °C 36 % 18 km/h (27 km/h) 0 mm0 mm 6 min 216.7 W/m²
16:24 28.7 °C 12.2 °C 36 % 16 km/h (28 km/h) 0 mm0 mm 6 min 216.8 W/m²
16:18 28.8 °C 12.7 °C 37 % 14 km/h (26 km/h) 0 mm0 mm 6 min 222.5 W/m²
16:12 28.7 °C 12.6 °C 37 % 12 km/h (26 km/h) 0 mm0 mm 6 min 226.9 W/m²
16:06 28.5 °C 12.8 °C 38 % 14 km/h (25 km/h) 0 mm0 mm 6 min 188.5 W/m²
16:00 28.9 °C 13.2 °C 38 % 18 km/h (29 km/h) 0 mm0 mm 6 min 231.6 W/m²
15:54 28.8 °C 12.2 °C 36 % 15 km/h (29 km/h) 0 mm0 mm 6 min 243.6 W/m²
15:48 29.2 °C 12.6 °C 36 % 11 km/h (21 km/h) 0 mm0 mm 6 min 248.9 W/m²
15:42 29 °C 12.4 °C 36 % 10 km/h (21 km/h) 0 mm0 mm 6 min 220.8 W/m²
15:36 29 °C 12.8 °C 37 % 9 km/h (19 km/h) 0 mm0 mm 5 min 207.9 W/m²
15:30 28.8 °C 12.2 °C 36 % 9 km/h (21 km/h) 0 mm0 mm 6 min 261.5 W/m²
15:24 29 °C 12.4 °C 36 % 14 km/h (25 km/h) 0 mm0 mm 6 min 252.1 W/m²
15:18 29.3 °C 12.3 °C 35 % 14 km/h (25 km/h) 0 mm0 mm 6 min 265.1 W/m²
15:12 28.9 °C 11.9 °C 35 % 10 km/h (20 km/h) 0 mm0 mm 6 min 271 W/m²
15:06 29 °C 12 °C 35 % 8 km/h (18 km/h) 0 mm0 mm 6 min 271.3 W/m²
15:00 28.8 °C 11.4 °C 34 % 10 km/h (24 km/h) 0 mm0 mm 6 min 276 W/m²
14:54 28.7 °C 11.7 °C 35 % 12 km/h (27 km/h) 0 mm0 mm 6 min 275.9 W/m²
14:48 29.1 °C 11.6 °C 34 % 12 km/h (27 km/h) 0 mm0 mm 6 min 281.1 W/m²
14:42 29 °C 12 °C 35 % 11 km/h (19 km/h) 0 mm0 mm 6 min 276 W/m²
14:36 28.7 °C 10.8 °C 33 % 13 km/h (25 km/h) 0 mm0 mm 6 min 275.7 W/m²
14:30 29.1 °C 11.6 °C 34 % 10 km/h (25 km/h) 0 mm0 mm 6 min 286.5 W/m²
14:24 28.7 °C 11.7 °C 35 % 11 km/h (22 km/h) 0 mm0 mm 6 min 284.3 W/m²
14:18 28.4 °C 11 °C 34 % 15 km/h (26 km/h) 0 mm0 mm 6 min 291.2 W/m²
14:12 28.4 °C 11 °C 34 % 17 km/h (27 km/h) 0 mm0 mm 6 min 286.5 W/m²
14:06 28.3 °C 11.4 °C 35 % 16 km/h (26 km/h) 0 mm0 mm 6 min 288.8 W/m²
14:00 28.6 °C 10.7 °C 33 % 14 km/h (25 km/h) 0 mm0 mm 6 min 290.8 W/m²
13:54 29 °C 11.5 °C 34 % 13 km/h (25 km/h) 0 mm0 mm 6 min 290.6 W/m²
13:48 28.6 °C 11.6 °C 35 % 12 km/h (20 km/h) 0 mm0 mm 6 min 290.1 W/m²
13:42 28.7 °C 11.3 °C 34 % 11 km/h (21 km/h) 0 mm0 mm 6 min 290.6 W/m²
13:36 28.6 °C 11.6 °C 35 % 9 km/h (19 km/h) 0 mm0 mm 6 min 291.1 W/m²
13:30 28.2 °C 10.4 °C 33 % 10 km/h (18 km/h) 0 mm0 mm 6 min 289 W/m²
13:24 28.4 °C 10.1 °C 32 % 10 km/h (18 km/h) 0 mm0 mm 6 min 290.1 W/m²
13:18 28.4 °C 10.1 °C 32 % 9 km/h (18 km/h) 0 mm0 mm 6 min 288.5 W/m²
13:12 28.5 °C 10.2 °C 32 % 9 km/h (17 km/h) 0 mm0 mm 6 min 287.2 W/m²
13:06 28.5 °C 11.1 °C 34 % 12 km/h (22 km/h) 0 mm0 mm 6 min 286.1 W/m²
13:00 28.1 °C 8.9 °C 30 % 13 km/h (22 km/h) 0 mm0 mm 6 min 284.8 W/m²
12:54 28.1 °C 9.9 °C 32 % 12 km/h (20 km/h) 0 mm0 mm 6 min 283 W/m²
12:48 27.8 °C 8.6 °C 30 % 13 km/h (21 km/h) 0 mm0 mm 6 min 280.7 W/m²
12:42 27.7 °C 8.5 °C 30 % 14 km/h (20 km/h) 0 mm0 mm 6 min 278.4 W/m²
12:36 27.6 °C 8.9 °C 31 % 13 km/h (21 km/h) 0 mm0 mm 6 min 276.7 W/m²
12:30 27.7 °C 9 °C 31 % 12 km/h (21 km/h) 0 mm0 mm 6 min 274.1 W/m²
12:24 27.6 °C 9.4 °C 32 % 10 km/h (20 km/h) 0 mm0 mm 6 min 272 W/m²
12:18 27.2 °C 8.1 °C 30 % 12 km/h (18 km/h) 0 mm0 mm 6 min 269.7 W/m²
12:12 27.3 °C 8.7 °C 31 % 13 km/h (19 km/h) 0 mm0 mm 6 min 267.6 W/m²
12:06 27.2 °C 8.1 °C 30 % 15 km/h (23 km/h) 0 mm0 mm 6 min 264.8 W/m²
12:00 26.6 °C 7.6 °C 30 % 16 km/h (23 km/h) 0 mm0 mm 6 min 261.8 W/m²
11:54 26.8 °C 8.2 °C 31 % 15 km/h (23 km/h) 0 mm0 mm 6 min 257.9 W/m²
11:48 27 °C 8.9 °C 32 % 15 km/h (24 km/h) 0 mm0 mm 6 min 254 W/m²
11:42 27.1 °C 9.4 °C 33 % 14 km/h (24 km/h) 0 mm0 mm 6 min 249.7 W/m²
11:36 27 °C 8.4 °C 31 % 13 km/h (20 km/h) 0 mm0 mm 6 min 245.1 W/m²
11:30 27.3 °C 9.2 °C 32 % 11 km/h (19 km/h) 0 mm0 mm 6 min 240.8 W/m²
11:24 27 °C 7.9 °C 30 % 10 km/h (15 km/h) 0 mm0 mm 6 min 237.1 W/m²
11:18 26.9 °C 8.3 °C 31 % 9 km/h (14 km/h) 0 mm0 mm 6 min 232.7 W/m²
11:12 26.8 °C 9.2 °C 33 % 8 km/h (12 km/h) 0 mm0 mm 6 min 227.7 W/m²
11:06 26.5 °C 9.8 °C 35 % 6 km/h (11 km/h) 0 mm0 mm 6 min 222.8 W/m²
11:00 26.3 °C 9.2 °C 34 % 4 km/h (9 km/h) 0 mm0 mm 6 min 217.5 W/m²
10:54 25.9 °C 7.9 °C 32 % 4 km/h (8 km/h) 0 mm0 mm 6 min 213 W/m²
10:48 25.8 °C 7.8 °C 32 % 4 km/h (8 km/h) 0 mm0 mm 6 min 207.8 W/m²
10:42 25.7 °C 9.9 °C 37 % 2 km/h (7 km/h) 0 mm0 mm 6 min 203.4 W/m²
10:36 25.3 °C 10.7 °C 40 % 3 km/h (8 km/h) 0 mm0 mm 5 min 179.2 W/m²
10:30 24.8 °C 9.5 °C 38 % 4 km/h (8 km/h) 0 mm0 mm 6 min 197.9 W/m²
10:24 25 °C 9.7 °C 38 % 2 km/h (6 km/h) 0 mm0 mm 6 min 185.4 W/m²
10:18 24.7 °C 8.6 °C 36 % 2 km/h (5 km/h) 0 mm0 mm 6 min 178.9 W/m²
10:12 24.2 °C 8.6 °C 37 % 3 km/h (6 km/h) 0 mm0 mm 6 min 173.2 W/m²
10:06 23.9 °C 9.1 °C 39 % 3 km/h (6 km/h) 0 mm0 mm 6 min 168.7 W/m²
10:00 23.1 °C 9.5 °C 42 % 4 km/h (8 km/h) 0 mm0 mm 6 min 161.5 W/m²
09:54 22.8 °C 8.9 °C 41 % 5 km/h (8 km/h) 0 mm0 mm 6 min 154.6 W/m²
09:48 21.9 °C 10.1 °C 47 % 5 km/h (8 km/h) 0 mm0 mm 5 min 128.2 W/m²
09:42 21.3 °C 9.8 °C 48 % 7 km/h (10 km/h) 0 mm0 mm 6 min 146 W/m²
09:36 20.7 °C 9.9 °C 50 % 8 km/h (12 km/h) 0 mm0 mm 3 min 94.8 W/m²
09:30 20.9 °C 9.2 °C 47 % 8 km/h (12 km/h) 0 mm0 mm 4 min 108.8 W/m²
09:24 20.7 °C 9.3 °C 48 % 8 km/h (11 km/h) 0 mm0 mm 6 min 138.8 W/m²
09:18 20.3 °C 11 °C 55 % 6 km/h (10 km/h) 0 mm0 mm 6 min 131 W/m²
09:12 19.8 °C 11 °C 57 % 3 km/h (7 km/h) 0 mm0 mm 6 min 119.5 W/m²
09:06 18.9 °C 10.5 °C 58 % 0 km/h (3 km/h) 0 mm0 mm 6 min 108.1 W/m²
09:00 17.9 °C 10 °C 60 % 0 km/h (4 km/h) 0 mm0 mm 6 min 101.5 W/m²
08:54 17.4 °C 10 °C 62 % 0 km/h (5 km/h) 0 mm0 mm 3 min 66.9 W/m²
08:48 17.2 °C 10.1 °C 63 % 0 km/h (4 km/h) 0 mm0 mm 5 min 77.5 W/m²
08:42 16.7 °C 10.1 °C 65 % 3 km/h (6 km/h) 0 mm0 mm 5 min 68.6 W/m²
08:36 16.6 °C 9.8 °C 64 % 5 km/h (6 km/h) 0 mm0 mm 0 min 24.4 W/m²
08:30 16.6 °C 9.5 °C 63 % 5 km/h (7 km/h) 0 mm0 mm 0 min 25.3 W/m²
08:24 16.7 °C 9.6 °C 63 % 4 km/h (8 km/h) 0 mm0 mm 2 min 38.3 W/m²
08:18 16.8 °C 9.2 °C 61 % 4 km/h (8 km/h) 0 mm0 mm 6 min 60 W/m²
08:12 16.7 °C 9.6 °C 63 % 6 km/h (11 km/h) 0 mm0 mm 6 min 53.6 W/m²
08:06 15.9 °C 8.4 °C 61 % 6 km/h (11 km/h) 0 mm0 mm 6 min 48.7 W/m²
08:00 15.1 °C 8.8 °C 66 % 5 km/h (8 km/h) 0 mm0 mm 6 min 43.3 W/m²
07:54 14 °C 8.8 °C 71 % 5 km/h (7 km/h) 0 mm0 mm 5 min 32.2 W/m²
07:48 13.5 °C 8.5 °C 72 % 4 km/h (7 km/h) 0 mm0 mm 3 min 22.4 W/m²
07:42 13.4 °C 8.2 °C 71 % 4 km/h (7 km/h) 0 mm0 mm 0 min 11.5 W/m²
07:36 13.5 °C 8.5 °C 72 % 4 km/h (9 km/h) 0 mm0 mm 0 min 8.2 W/m²
07:30 13.7 °C 8.7 °C 72 % 6 km/h (10 km/h) 0 mm0 mm 0 min 5.9 W/m²
07:24 13.4 °C 7.8 °C 69 % 5 km/h (10 km/h) 0 mm0 mm 0 min 5.2 W/m²
07:18 12.7 °C 8.4 °C 75 % 3 km/h (6 km/h) 0 mm0 mm 0 min 1.6 W/m²
07:12 12.7 °C 8.4 °C 75 % 4 km/h (6 km/h) 0 mm0 mm 0 min 0 W/m²
07:06 12.7 °C 8.4 °C 75 % 6 km/h (8 km/h) 0 mm0 mm 0 min 0 W/m²
07:00 12.7 °C 8.4 °C 75 % 6 km/h (8 km/h) 0 mm0 mm 0 min 0 W/m²
06:54 12.8 °C 8.3 °C 74 % 6 km/h (8 km/h) 0 mm0 mm 0 min 0 W/m²
06:48 13.3 °C 8.4 °C 72 % 6 km/h (10 km/h) 0 mm0 mm 0 min 0 W/m²
06:42 13.3 °C 7.7 °C 69 % 8 km/h (11 km/h) 0 mm0 mm 0 min 0 W/m²
06:36 13.4 °C 7.8 °C 69 % 7 km/h (11 km/h) 0 mm0 mm 0 min 0 W/m²
06:30 13 °C 8.1 °C 72 % 5 km/h (8 km/h) 0 mm0 mm 0 min 0 W/m²
06:24 13.2 °C 8.1 °C 71 % 3 km/h (5 km/h) 0 mm0 mm 0 min 0 W/m²
06:18 13.6 °C 8 °C 69 % 4 km/h (7 km/h) 0 mm0 mm 0 min 0 W/m²
06:12 13.8 °C 8.2 °C 69 % 6 km/h (8 km/h) 0 mm0 mm 0 min 0 W/m²
06:06 14 °C 8 °C 67 % 7 km/h (10 km/h) 0 mm0 mm 0 min 0 W/m²
06:00 14.4 °C 7.9 °C 65 % 8 km/h (13 km/h) 0 mm0 mm 0 min 0 W/m²
05:54 14.1 °C 7.8 °C 66 % 7 km/h (12 km/h) 0 mm0 mm 0 min 0 W/m²
05:48 13.7 °C 8.1 °C 69 % 6 km/h (9 km/h) 0 mm0 mm 0 min 0 W/m²
05:42 13.5 °C 8.3 °C 71 % 6 km/h (9 km/h) 0 mm0 mm 0 min 0 W/m²
05:36 13.7 °C 8.7 °C 72 % 6 km/h (9 km/h) 0 mm0 mm 0 min 0 W/m²
05:30 14.2 °C 8.8 °C 70 % 6 km/h (9 km/h) 0 mm0 mm 0 min 0 W/m²
05:24 13.8 °C 8.6 °C 71 % 5 km/h (8 km/h) 0 mm0 mm 0 min 0 W/m²
05:18 13.7 °C 8.5 °C 71 % 5 km/h (8 km/h) 0 mm0 mm 0 min 0 W/m²
05:12 13.7 °C 8.3 °C 70 % 4 km/h (7 km/h) 0 mm0 mm 0 min 0 W/m²
05:06 14 °C 9 °C 72 % 3 km/h (6 km/h) 0 mm0 mm 0 min 0 W/m²
05:00 14 °C 9 °C 72 % 3 km/h (7 km/h) 0 mm0 mm 0 min 0 W/m²
04:54 14.2 °C 9.2 °C 72 % 5 km/h (9 km/h) 0 mm0 mm 0 min 0 W/m²
04:48 13.9 °C 8.7 °C 71 % 8 km/h (10 km/h) 0 mm0 mm 0 min 0 W/m²
04:42 14.1 °C 8.7 °C 70 % 8 km/h (12 km/h) 0 mm0 mm 0 min 0 W/m²
04:36 14.6 °C 8.8 °C 68 % 9 km/h (12 km/h) 0 mm0 mm 0 min 0 W/m²
04:30 14 °C 8.8 °C 71 % 8 km/h (11 km/h) 0 mm0 mm 0 min 0 W/m²
04:24 14.1 °C 8.9 °C 71 % 7 km/h (10 km/h) 0 mm0 mm 0 min 0 W/m²
04:18 14.5 °C 8.9 °C 69 % 6 km/h (9 km/h) 0 mm0 mm 0 min 0 W/m²
04:12 14.5 °C 9.3 °C 71 % 6 km/h (9 km/h) 0 mm0 mm 0 min 0 W/m²
04:06 14.6 °C 9.2 °C 70 % 7 km/h (11 km/h) 0 mm0 mm 0 min 0 W/m²
04:00 15.2 °C 9.5 °C 69 % 9 km/h (11 km/h) 0 mm0 mm 0 min 0 W/m²
03:54 14.8 °C 9.6 °C 71 % 9 km/h (12 km/h) 0 mm0 mm 0 min 0 W/m²
03:48 14.7 °C 9.5 °C 71 % 7 km/h (12 km/h) 0 mm0 mm 0 min 0 W/m²
03:42 15 °C 9.8 °C 71 % 7 km/h (12 km/h) 0 mm0 mm 0 min 0 W/m²
03:36 15.1 °C 9.2 °C 68 % 7 km/h (12 km/h) 0 mm0 mm 0 min 0 W/m²
03:30 14.7 °C 9.1 °C 69 % 7 km/h (12 km/h) 0 mm0 mm 0 min 0 W/m²
03:24 14.6 °C 9.2 °C 70 % 9 km/h (12 km/h) 0 mm0 mm 0 min 0 W/m²
03:18 14.2 °C 9.4 °C 73 % 6 km/h (12 km/h) 0 mm0 mm 0 min 0 W/m²
03:12 14.4 °C 9.6 °C 73 % 4 km/h (8 km/h) 0 mm0 mm 0 min 0 W/m²
03:06 14.4 °C 9.8 °C 74 % 5 km/h (8 km/h) 0 mm0 mm 0 min 0 W/m²
03:00 14.4 °C 9.6 °C 73 % 6 km/h (9 km/h) 0 mm0 mm 0 min 0 W/m²
02:54 14.6 °C 9.6 °C 72 % 8 km/h (11 km/h) 0 mm0 mm 0 min 0 W/m²
02:48 14.7 °C 9.5 °C 71 % 7 km/h (11 km/h) 0 mm0 mm 0 min 0 W/m²
02:42 14.1 °C 9.9 °C 76 % 5 km/h (9 km/h) 0 mm0 mm 0 min 0 W/m²
02:36 14 °C 9.6 °C 75 % 6 km/h (9 km/h) 0 mm0 mm 0 min 0 W/m²
02:30 13.9 °C 9.3 °C 74 % 6 km/h (9 km/h) 0 mm0 mm 0 min 0 W/m²
02:24 14.3 °C 9.7 °C 74 % 6 km/h (8 km/h) 0 mm0 mm 0 min 0 W/m²
02:18 14.6 °C 9.2 °C 70 % 6 km/h (8 km/h) 0 mm0 mm 0 min 0 W/m²
02:12 13.9 °C 9.3 °C 74 % 6 km/h (8 km/h) 0 mm0 mm 0 min 0 W/m²
02:06 13.8 °C 9.2 °C 74 % 6 km/h (8 km/h) 0 mm0 mm 0 min 0 W/m²
02:00 14 °C 9.2 °C 73 % 7 km/h (10 km/h) 0 mm0 mm 0 min 0 W/m²
01:54 14 °C 9 °C 72 % 7 km/h (10 km/h) 0 mm0 mm 0 min 0 W/m²
01:48 13.5 °C 9.3 °C 76 % 8 km/h (10 km/h) 0 mm0 mm 0 min 0 W/m²
01:42 13.1 °C 9.2 °C 77 % 8 km/h (10 km/h) 0 mm0 mm 0 min 0 W/m²
01:36 13.4 °C 9.1 °C 75 % 8 km/h (9 km/h) 0 mm0 mm 0 min 0 W/m²
01:30 13.4 °C 9.3 °C 76 % 6 km/h (9 km/h) 0 mm0 mm 0 min 0 W/m²
01:24 13.4 °C 9.3 °C 76 % 7 km/h (9 km/h) 0 mm0 mm 0 min 0 W/m²
01:18 13.5 °C 9.2 °C 75 % 7 km/h (9 km/h) 0 mm0 mm 0 min 0 W/m²
01:12 13.6 °C 9.2 °C 75 % 6 km/h (8 km/h) 0 mm0 mm 0 min 0 W/m²
01:06 13.8 °C 9.2 °C 74 % 6 km/h (8 km/h) 0 mm0 mm 0 min 0 W/m²
01:00 13.7 °C 9.1 °C 74 % 6 km/h (8 km/h) 0 mm0 mm 0 min 0 W/m²
00:54 13.9 °C 8.9 °C 72 % 7 km/h (9 km/h) 0 mm0 mm 0 min 0 W/m²
00:48 13.6 °C 9.2 °C 75 % 8 km/h (11 km/h) 0 mm0 mm 0 min 0 W/m²
00:42 13.5 °C 9.3 °C 76 % 8 km/h (11 km/h) 0 mm0 mm 0 min 0 W/m²
00:36 13.6 °C 9.2 °C 75 % 7 km/h (9 km/h) 0 mm0 mm 0 min 0 W/m²
00:30 13.7 °C 9.3 °C 75 % 7 km/h (10 km/h) 0 mm0 mm 0 min 0 W/m²
00:24 13.8 °C 9.4 °C 75 % 8 km/h (10 km/h) 0 mm0 mm 0 min 0 W/m²
00:18 13.4 °C 9.4 °C 77 % 9 km/h (11 km/h) 0 mm0 mm 0 min 0 W/m²
00:12 13.7 °C 9.5 °C 76 % 8 km/h (11 km/h) 0 mm0 mm 0 min 0 W/m²
00:06 14 °C 9.4 °C 74 % 7 km/h (10 km/h) 0 mm0 mm 0 min 0 W/m²
00:00 14.1 °C 9.3 °C 73 % 7 km/h (10 km/h) 0 mm0 mm 0 min 0 W/m²

Données via Météo-France

Relevés météo à St-Auban-Sur-Ouveze

Cette page rassemble les observations de la station de St-Auban-Sur-Ouveze : température, humidité, vent, précipitations et pression atmosphérique. Les graphiques facilitent le suivi de la journée, tandis que le tableau donne accès aux mesures horaires et infra-horaires disponibles.

Pour replacer ces mesures dans leur contexte, consultez la climatologie de St-Auban-Sur-Ouveze ainsi que ses normales et records. Retrouvez aussi la carte des observations météo en temps réel.